This is the latest recevied weather packets stored in our database for station/object KF6YUA. If no packets are shown the sender has not sent any weather packets the latest 10 day(s).
| Time | Temp. | Humidity | Pressure | Rain* | Wind** | Luminosity | Snow |
|---|---|---|---|---|---|---|---|
| 1777848696 | 18.33° C | 68% | 1014.7 hPa | 0 mm | - | 329 W/m² | - |
| 1777848394 | 17.78° C | 70% | 1014.8 hPa | 0 mm | - | 604 W/m² | - |
| 1777848092 | 17.78° C | 70% | 1014.5 hPa | 0 mm | - | 276 W/m² | - |
| 1777847790 | 17.78° C | 69% | 1014.7 hPa | 0 mm | - | 324 W/m² | - |
| 1777847486 | 17.78° C | 68% | 1014.8 hPa | 0 mm | - | 289 W/m² | - |
| 1777847183 | 17.78° C | 67% | 1014.6 hPa | 0 mm | - | 404 W/m² | - |
| 1777846881 | 17.78° C | 68% | 1014.6 hPa | 0 mm | - | 302 W/m² | - |
| 1777846579 | 17.78° C | 67% | 1014.8 hPa | 0 mm | - | 308 W/m² | - |
| 1777846276 | 18.33° C | 65% | 1014.8 hPa | 0 mm | - | 297 W/m² | - |
| 1777845973 | 17.78° C | 69% | 1014.9 hPa | 0 mm | - | 621 W/m² | - |
| 1777845670 | 17.78° C | 69% | 1015 hPa | 0 mm | - | 607 W/m² | - |
| 1777845367 | 17.22° C | 67% | 1015.1 hPa | 0 mm | - | 576 W/m² | - |
| 1777845063 | 17.78° C | 68% | 1014.9 hPa | 0 mm | - | 617 W/m² | - |
| 1777844762 | 17.78° C | 67% | 1015 hPa | 0 mm | - | 547 W/m² | - |
| 1777844458 | 17.78° C | 66% | 1015.2 hPa | 0 mm | - | 519 W/m² | - |
| 1777844157 | 17.78° C | 64% | 1014.8 hPa | 0 mm | - | 590 W/m² | - |
| 1777843853 | 17.78° C | 62% | 1014.8 hPa | 0 mm | - | 663 W/m² | - |
| 1777843550 | 18.33° C | 62% | 1014.8 hPa | 0 mm | - | 568 W/m² | - |
| 1777843247 | 17.78° C | 67% | 1014.8 hPa | 0 mm | - | 532 W/m² | - |
| 1777842945 | 17.78° C | 66% | 1014.8 hPa | 0 mm | - | 653 W/m² | - |
| 1777842640 | 17.78° C | 68% | 1014.8 hPa | 0 mm | - | 421 W/m² | - |
| 1777842337 | 17.22° C | 67% | 1014.8 hPa | 0 mm | - | 489 W/m² | - |
| 1777842033 | 18.33° C | 64% | 1014.9 hPa | 0 mm | - | 484 W/m² | - |
| 1777841730 | 17.78° C | 67% | 1014.9 hPa | 0 mm | - | 520 W/m² | - |
| 1777841426 | 17.22° C | 67% | 1014.8 hPa | 0 mm | - | 335 W/m² | - |
* Rain latest hour (hover to see other rain measurements)
** Current wind speed in m/s (hover to see current wind gust speed)